createdAt,value
2022-11-13T00:04:41.152Z,7.88
2022-11-13T00:09:42.521Z,9.10
2022-11-13T00:14:44.013Z,10.07
2022-11-13T00:19:45.382Z,10.07
2022-11-13T00:24:46.839Z,9.10
2022-11-13T00:29:48.218Z,10.32
2022-11-13T00:34:49.593Z,10.82
2022-11-13T00:39:54.436Z,8.55
2022-11-13T00:44:58.395Z,7.85
2022-11-13T00:49:59.759Z,9.18
2022-11-13T00:55:01.128Z,9.98
2022-11-13T01:00:02.914Z,9.45
2022-11-13T01:05:04.589Z,10.35
2022-11-13T01:10:07.365Z,8.27
2022-11-13T01:15:09.321Z,8.80
2022-11-13T01:20:11.122Z,8.07
2022-11-13T01:25:12.534Z,9.13
2022-11-13T01:30:13.949Z,10.27
2022-11-13T01:35:15.462Z,10.73
2022-11-13T01:40:16.926Z,9.60
2022-11-13T01:46:09.795Z,15.88
2022-11-13T01:51:20.852Z,10.25
2022-11-13T01:56:22.670Z,8.95
2022-11-13T02:01:24.102Z,8.40
2022-11-13T02:06:30.404Z,9.10
2022-11-13T02:11:31.902Z,8.73
2022-11-13T02:16:36.652Z,7.70
2022-11-13T02:21:47.710Z,8.18
2022-11-13T02:26:51.874Z,7.70
2022-11-13T02:31:53.211Z,6.75
2022-11-13T02:36:54.613Z,5.82
2022-11-13T02:41:55.977Z,6.60
2022-11-13T02:46:57.345Z,6.28
2022-11-13T02:51:58.820Z,6.97
2022-11-13T02:57:00.199Z,6.13
2022-11-13T03:02:01.619Z,7.07
2022-11-13T03:07:03.323Z,8.63
2022-11-13T03:12:05.073Z,7.80
2022-11-13T03:17:06.430Z,7.38
2022-11-13T03:22:07.925Z,7.35
2022-11-13T03:27:09.342Z,8.05
2022-11-13T03:32:10.738Z,5.90
2022-11-13T03:37:12.081Z,8.77
2022-11-13T03:42:13.434Z,7.60
2022-11-13T03:47:15.542Z,6.70
2022-11-13T03:52:16.942Z,7.10
2022-11-13T03:57:18.581Z,6.72
2022-11-13T04:02:19.920Z,7.15
2022-11-13T04:07:21.361Z,7.05
2022-11-13T04:12:22.769Z,6.75
2022-11-13T04:17:24.159Z,6.60
2022-11-13T04:22:25.581Z,5.75
2022-11-13T04:27:27.021Z,6.72
2022-11-13T04:32:28.519Z,5.75
2022-11-13T04:37:29.889Z,5.63
2022-11-13T04:42:49.423Z,6.43
2022-11-13T04:47:51.430Z,5.80
2022-11-13T04:52:52.873Z,4.97
2022-11-13T04:57:55.533Z,4.80
2022-11-13T05:02:59.394Z,5.22
2022-11-13T05:08:00.803Z,5.53
2022-11-13T05:13:02.215Z,5.60
2022-11-13T05:18:03.685Z,5.78
2022-11-13T05:23:05.165Z,5.72
2022-11-13T05:28:06.603Z,6.03
2022-11-13T05:33:08.291Z,6.32
2022-11-13T05:38:09.694Z,6.20
2022-11-13T05:43:11.039Z,5.70
2022-11-13T05:48:12.459Z,5.85
2022-11-13T05:53:13.895Z,5.72
2022-11-13T05:58:15.256Z,6.18
2022-11-13T06:03:16.649Z,6.13
2022-11-13T06:08:18.079Z,5.80
2022-11-13T06:13:19.790Z,6.50
2022-11-13T06:18:26.707Z,6.90
2022-11-13T06:23:28.389Z,5.05
2022-11-13T06:28:30.117Z,5.88
2022-11-13T06:33:32.258Z,5.22
2022-11-13T06:38:35.872Z,6.90
2022-11-13T06:43:37.736Z,6.00
2022-11-13T06:48:39.258Z,6.70
2022-11-13T06:53:40.805Z,5.72
2022-11-13T06:58:43.655Z,4.65
2022-11-13T07:03:45.523Z,6.68
2022-11-13T07:08:47.672Z,5.30
2022-11-13T07:13:49.786Z,4.78
2022-11-13T07:18:54.311Z,8.77
2022-11-13T07:23:56.036Z,3.90
2022-11-13T07:28:57.523Z,4.05
2022-11-13T07:33:59.078Z,4.60
2022-11-13T07:39:00.614Z,4.20
2022-11-13T07:44:05.442Z,4.10
2022-11-13T07:49:09.359Z,5.20
2022-11-13T07:54:10.733Z,4.45
2022-11-13T07:59:12.081Z,4.47
2022-11-13T08:04:13.425Z,4.75
2022-11-13T08:09:14.814Z,4.95
2022-11-13T08:14:16.170Z,5.43
2022-11-13T08:19:17.552Z,4.32
2022-11-13T08:24:18.938Z,5.45
2022-11-13T08:29:20.280Z,5.50
2022-11-13T08:34:21.626Z,5.15
2022-11-13T08:39:23.021Z,5.63
2022-11-13T08:44:24.440Z,5.60
2022-11-13T08:49:25.905Z,5.55
2022-11-13T08:54:27.303Z,6.15
2022-11-13T08:59:28.702Z,5.85
2022-11-13T09:04:30.062Z,5.72
2022-11-13T09:09:31.433Z,6.32
2022-11-13T09:14:32.828Z,5.72
2022-11-13T09:19:34.271Z,6.03
2022-11-13T09:24:35.647Z,5.40
2022-11-13T09:29:37.043Z,5.40
2022-11-13T09:34:38.956Z,5.75
2022-11-13T09:39:40.403Z,6.47
2022-11-13T09:44:47.714Z,6.22
2022-11-13T09:49:58.606Z,6.50
2022-11-13T09:55:00.161Z,4.72
2022-11-13T10:00:12.657Z,5.78
2022-11-13T10:05:27.529Z,5.25
2022-11-13T10:10:52.221Z,5.07
2022-11-13T10:16:22.745Z,4.97
2022-11-13T10:21:54.905Z,4.53
2022-11-13T10:27:00.199Z,4.72
2022-11-13T10:32:23.132Z,4.55
2022-11-13T10:37:33.971Z,5.10
2022-11-13T10:42:41.778Z,5.30
2022-11-13T10:48:03.745Z,5.47
2022-11-13T10:53:16.247Z,4.50
2022-11-13T10:58:19.632Z,4.65
2022-11-13T11:03:24.414Z,5.85
2022-11-13T11:08:35.149Z,5.30
2022-11-13T11:13:36.557Z,5.72
2022-11-13T11:18:47.454Z,5.78
2022-11-13T11:24:04.358Z,4.90
2022-11-13T11:29:17.309Z,5.80
2022-11-13T11:34:25.578Z,5.75
2022-11-13T11:39:31.434Z,5.88
2022-11-13T11:44:48.058Z,5.55
2022-11-13T11:49:49.531Z,5.82
2022-11-13T11:55:32.988Z,4.80
2022-11-13T12:00:41.204Z,4.18
2022-11-13T12:05:57.335Z,4.40
2022-11-13T12:11:04.655Z,4.60
2022-11-13T12:16:43.488Z,4.20
2022-11-13T12:21:57.035Z,3.90
2022-11-13T12:27:21.984Z,3.95
2022-11-13T12:32:35.190Z,3.80
2022-11-13T12:37:42.425Z,4.10
2022-11-13T12:42:55.056Z,3.03
2022-11-13T12:47:56.587Z,2.83
2022-11-13T12:53:03.058Z,3.28
2022-11-13T12:58:32.896Z,3.17
2022-11-13T13:04:05.123Z,3.03
2022-11-13T13:09:18.587Z,3.65
2022-11-13T13:14:40.690Z,4.70
2022-11-13T13:19:42.232Z,3.22
2022-11-13T13:24:43.631Z,3.38
2022-11-13T13:29:45.067Z,3.53
2022-11-13T13:35:08.245Z,2.63
2022-11-13T13:40:09.764Z,4.15
2022-11-13T13:45:51.724Z,3.35
2022-11-13T13:50:53.838Z,3.15
2022-11-13T13:55:56.402Z,3.33
2022-11-13T14:01:17.620Z,3.20
2022-11-13T14:06:24.721Z,3.60
2022-11-13T14:11:29.310Z,3.47
2022-11-13T14:16:30.683Z,4.82
2022-11-13T14:21:32.768Z,3.47
2022-11-13T14:26:34.425Z,2.85
2022-11-13T14:31:36.871Z,4.38
2022-11-13T14:36:40.735Z,2.47
2022-11-13T14:41:49.413Z,2.40
2022-11-13T14:47:00.307Z,2.50
2022-11-13T14:52:02.411Z,3.22
2022-11-13T14:57:09.302Z,2.47
2022-11-13T15:02:12.461Z,2.40
2022-11-13T15:07:34.152Z,3.03
2022-11-13T15:12:35.482Z,4.00
2022-11-13T15:17:36.946Z,3.33
2022-11-13T15:28:07.682Z,3.22
2022-11-13T15:33:14.605Z,3.33
2022-11-13T15:38:16.024Z,4.25
2022-11-13T15:43:21.989Z,5.55
2022-11-13T15:48:23.450Z,6.97
2022-11-13T15:53:24.991Z,7.95
2022-11-13T15:58:30.509Z,5.53
2022-11-13T16:03:39.621Z,9.73
2022-11-13T16:08:41.072Z,7.93
2022-11-13T16:13:43.078Z,7.35
2022-11-13T16:18:44.553Z,9.20
2022-11-13T16:23:45.924Z,9.60
2022-11-13T16:29:12.045Z,11.63
2022-11-13T16:34:09.483Z,12.93
2022-11-13T16:39:15.822Z,11.70
2022-11-13T16:44:17.199Z,10.68
2022-11-13T16:49:21.247Z,8.93
2022-11-13T16:54:22.602Z,6.93
2022-11-13T16:59:24.083Z,7.95
2022-11-13T17:04:25.447Z,12.15
2022-11-13T17:09:26.871Z,11.10
2022-11-13T17:14:28.230Z,10.65
2022-11-13T17:19:29.629Z,11.98
2022-11-13T17:24:30.994Z,11.77
2022-11-13T17:29:33.162Z,7.65
2022-11-13T17:34:34.573Z,8.45
2022-11-13T17:39:35.951Z,8.52
2022-11-13T17:44:37.586Z,9.20
2022-11-13T17:49:39.057Z,9.95
2022-11-13T17:54:40.459Z,10.88
2022-11-13T17:59:41.809Z,10.82
2022-11-13T18:04:43.156Z,10.75
2022-11-13T18:09:44.570Z,11.52
2022-11-13T18:14:52.159Z,11.25
2022-11-13T18:20:01.331Z,14.52
2022-11-13T18:25:03.441Z,17.60
2022-11-13T18:30:05.454Z,11.23
2022-11-13T18:35:07.302Z,12.82
2022-11-13T18:40:09.629Z,14.15
2022-11-13T18:45:11.823Z,21.73
2022-11-13T18:50:13.201Z,53.40
2022-11-13T18:55:14.627Z,20.70
2022-11-13T19:00:16.726Z,18.52
2022-11-13T19:05:18.091Z,20.85
2022-11-13T19:10:19.691Z,10.15
2022-11-13T19:15:21.125Z,8.57
2022-11-13T19:20:22.577Z,11.50
2022-11-13T19:25:23.947Z,17.75
2022-11-13T19:30:25.365Z,13.35
2022-11-13T19:35:26.803Z,10.10
2022-11-13T19:40:28.283Z,9.32
2022-11-13T19:45:31.025Z,11.93
2022-11-13T19:50:32.973Z,11.27
2022-11-13T19:55:34.732Z,11.82
2022-11-13T20:00:36.308Z,12.32
2022-11-13T20:05:41.894Z,12.52
2022-11-13T20:10:43.282Z,12.13
2022-11-13T20:15:52.099Z,12.07
2022-11-13T20:20:55.125Z,12.52
2022-11-13T20:25:59.516Z,11.10
2022-11-13T20:31:07.915Z,11.50
2022-11-13T20:36:09.676Z,8.05
2022-11-13T20:41:12.466Z,9.02
2022-11-13T20:46:15.445Z,8.30
2022-11-13T20:51:20.308Z,8.00
2022-11-13T20:56:23.540Z,7.55
2022-11-13T21:01:26.105Z,7.97
2022-11-13T21:06:27.537Z,8.68
2022-11-13T21:11:29.480Z,8.75
2022-11-13T21:16:31.468Z,11.10
2022-11-13T21:21:32.893Z,14.13
2022-11-13T21:26:34.270Z,13.20
2022-11-13T21:31:35.642Z,12.15
2022-11-13T21:36:37.057Z,10.52
2022-11-13T21:41:38.494Z,8.88
2022-11-13T21:46:41.934Z,12.70
2022-11-13T21:51:43.570Z,10.30
2022-11-13T21:56:44.994Z,14.20
2022-11-13T22:01:46.472Z,12.50
2022-11-13T22:06:49.579Z,11.55
2022-11-13T22:11:51.262Z,8.70
2022-11-13T22:16:52.785Z,11.40
2022-11-13T22:21:54.250Z,19.38
2022-11-13T22:26:55.668Z,9.02
2022-11-13T22:31:57.011Z,9.00
2022-11-13T22:36:58.372Z,9.07
2022-11-13T22:41:59.714Z,8.85
2022-11-13T22:47:01.041Z,9.20
2022-11-13T22:52:02.382Z,8.95
2022-11-13T22:57:03.966Z,8.10
2022-11-13T23:02:05.374Z,10.07
2022-11-13T23:07:06.798Z,7.60
2022-11-13T23:12:09.454Z,8.02
2022-11-13T23:17:10.788Z,8.57
2022-11-13T23:22:12.171Z,8.63
2022-11-13T23:27:13.540Z,7.38
2022-11-13T23:32:14.919Z,7.75
2022-11-13T23:37:16.325Z,7.47
2022-11-13T23:42:32.993Z,6.85
2022-11-13T23:47:39.088Z,6.97
2022-11-13T23:52:40.482Z,6.40
2022-11-13T23:57:41.837Z,6.82
